createdAt,value
2023-05-05T00:00:52.039Z,83.16
2023-05-05T00:03:20.702Z,83.84
2023-05-05T00:05:49.624Z,83.18
2023-05-05T00:08:17.106Z,83.42
2023-05-05T00:10:47.950Z,83.50
2023-05-05T00:13:15.164Z,82.91
2023-05-05T00:15:43.302Z,83.15
2023-05-05T00:18:11.043Z,83.74
2023-05-05T00:20:37.894Z,83.48
2023-05-05T00:23:04.724Z,83.08
2023-05-05T00:25:31.637Z,83.50
2023-05-05T00:27:58.478Z,82.64
2023-05-05T00:30:25.565Z,83.48
2023-05-05T00:32:52.411Z,83.35
2023-05-05T00:35:19.446Z,83.51
2023-05-05T00:37:46.492Z,83.47
2023-05-05T00:40:13.657Z,83.18
2023-05-05T00:42:45.867Z,83.86
2023-05-05T00:45:14.368Z,84.67
2023-05-05T00:47:48.098Z,84.72
2023-05-05T00:50:29.345Z,85.21
2023-05-05T00:53:02.048Z,85.80
2023-05-05T00:55:29.978Z,85.85
2023-05-05T00:58:00.739Z,85.78
2023-05-05T01:00:29.058Z,86.22
2023-05-05T01:02:56.965Z,84.29
2023-05-05T01:05:25.961Z,84.59
2023-05-05T01:08:03.150Z,85.09
2023-05-05T01:10:45.663Z,85.89
2023-05-05T01:13:42.848Z,86.22
2023-05-05T01:16:19.156Z,85.33
2023-05-05T01:19:19.313Z,85.34
2023-05-05T01:21:56.171Z,85.25
2023-05-05T01:24:50.356Z,86.65
2023-05-05T01:27:32.258Z,86.70
2023-05-05T01:30:08.799Z,85.42
2023-05-05T01:32:47.945Z,86.32
2023-05-05T01:35:50.228Z,85.80
2023-05-05T01:38:25.170Z,85.57
2023-05-05T01:41:00.035Z,86.06
2023-05-05T01:43:30.773Z,86.50
2023-05-05T01:45:59.485Z,86.26
2023-05-05T01:48:26.515Z,88.08
2023-05-05T01:50:54.155Z,88.75
2023-05-05T01:53:24.802Z,87.97
2023-05-05T01:55:54.678Z,88.08
2023-05-05T01:58:23.539Z,88.42
2023-05-05T02:00:51.936Z,87.59
2023-05-05T02:03:20.885Z,88.67
2023-05-05T02:05:49.788Z,88.15
2023-05-05T02:08:16.918Z,87.99
2023-05-05T02:10:45.289Z,88.40
2023-05-05T02:13:14.000Z,87.39
2023-05-05T02:15:43.353Z,88.12
2023-05-05T02:18:11.321Z,87.22
2023-05-05T02:20:39.915Z,87.85
2023-05-05T02:23:08.009Z,87.52
2023-05-05T02:25:43.495Z,88.07
2023-05-05T02:28:18.434Z,87.83
2023-05-05T02:30:59.770Z,88.88
2023-05-05T02:33:32.837Z,87.69
2023-05-05T02:36:18.448Z,88.23
2023-05-05T02:38:58.138Z,88.26
2023-05-05T02:41:29.123Z,88.73
2023-05-05T02:44:00.084Z,86.66
2023-05-05T02:46:28.747Z,87.21
2023-05-05T02:48:55.531Z,87.82
2023-05-05T02:51:22.296Z,88.19
2023-05-05T02:53:49.135Z,87.80
2023-05-05T02:56:41.105Z,87.62
2023-05-05T02:59:20.173Z,87.75
2023-05-05T03:02:12.550Z,87.89
2023-05-05T03:04:47.001Z,90.29
2023-05-05T03:07:21.423Z,88.91
2023-05-05T03:10:03.584Z,90.46
2023-05-05T03:12:46.657Z,90.19
2023-05-05T03:15:26.486Z,89.08
2023-05-05T03:17:55.083Z,88.91
2023-05-05T03:20:22.955Z,88.14
2023-05-05T03:22:51.464Z,89.33
2023-05-05T03:25:18.551Z,89.59
2023-05-05T03:27:45.473Z,89.21
2023-05-05T03:30:15.582Z,90.53
2023-05-05T03:32:48.593Z,89.80
2023-05-05T03:35:15.893Z,90.87
2023-05-05T03:37:42.849Z,90.17
2023-05-05T03:40:10.760Z,89.29
2023-05-05T03:42:37.458Z,89.56
2023-05-05T03:45:04.691Z,90.34
2023-05-05T03:47:31.475Z,89.45
2023-05-05T03:49:58.240Z,89.74
2023-05-05T03:52:25.622Z,88.86
2023-05-05T03:54:54.220Z,89.26
2023-05-05T03:57:21.051Z,89.94
2023-05-05T03:59:48.477Z,89.93
2023-05-05T04:02:18.299Z,90.15
2023-05-05T04:04:45.871Z,89.56
2023-05-05T04:07:13.115Z,90.35
2023-05-05T04:09:44.572Z,88.66
2023-05-05T04:12:12.434Z,88.15
2023-05-05T04:14:39.710Z,88.96
2023-05-05T04:17:06.544Z,88.70
2023-05-05T04:19:33.703Z,88.79
2023-05-05T04:22:02.332Z,88.95
2023-05-05T04:24:29.615Z,89.49
2023-05-05T04:26:56.421Z,88.65
2023-05-05T04:29:23.557Z,88.39
2023-05-05T04:31:50.915Z,88.21
2023-05-05T04:34:18.180Z,87.54
2023-05-05T04:36:44.901Z,87.12
2023-05-05T04:39:11.995Z,86.62
2023-05-05T04:41:39.120Z,86.27
2023-05-05T04:44:06.243Z,86.70
2023-05-05T04:46:34.845Z,86.65
2023-05-05T04:49:03.427Z,86.63
2023-05-05T04:51:32.223Z,85.76
2023-05-05T04:53:59.017Z,85.63
2023-05-05T04:56:25.812Z,85.15
2023-05-05T04:58:52.477Z,84.11
2023-05-05T05:01:19.217Z,84.09
2023-05-05T05:03:46.276Z,84.96
2023-05-05T05:06:13.109Z,83.77
2023-05-05T05:08:39.806Z,82.68
2023-05-05T05:11:06.589Z,83.10
2023-05-05T05:13:33.316Z,82.06
2023-05-05T05:16:01.316Z,83.21
2023-05-05T05:18:28.401Z,82.73
2023-05-05T05:20:55.491Z,83.68
2023-05-05T05:23:22.286Z,83.87
2023-05-05T05:25:49.254Z,83.18
2023-05-05T05:28:18.215Z,81.88
2023-05-05T05:30:55.761Z,83.22
2023-05-05T05:33:23.015Z,82.92
2023-05-05T05:35:50.905Z,82.23
2023-05-05T05:38:20.101Z,80.63
2023-05-05T05:40:48.495Z,77.22
2023-05-05T05:43:15.450Z,76.96
2023-05-05T05:45:42.856Z,76.30
2023-05-05T05:48:10.233Z,77.33
2023-05-05T05:50:37.547Z,76.59
2023-05-05T05:53:04.557Z,75.50
2023-05-05T05:55:31.735Z,75.51
2023-05-05T05:57:58.954Z,75.43
2023-05-05T06:00:27.081Z,75.27
2023-05-05T06:03:01.457Z,75.88
2023-05-05T06:05:31.509Z,76.23
2023-05-05T06:07:58.508Z,76.04
2023-05-05T06:10:28.221Z,74.78
2023-05-05T06:13:02.108Z,73.51
2023-05-05T06:15:30.286Z,72.64
2023-05-05T06:17:57.611Z,72.04
2023-05-05T06:20:24.950Z,72.39
2023-05-05T06:22:51.818Z,71.52
2023-05-05T06:25:18.989Z,71.33
2023-05-05T06:27:46.451Z,71.09
2023-05-05T06:30:14.793Z,71.40
2023-05-05T06:32:41.594Z,70.60
2023-05-05T06:35:09.049Z,70.05
2023-05-05T06:37:35.995Z,69.49
2023-05-05T06:40:02.761Z,69.56
2023-05-05T06:42:30.890Z,67.71
2023-05-05T06:44:58.570Z,66.19
2023-05-05T06:47:25.702Z,67.12
2023-05-05T06:49:52.438Z,66.05
2023-05-05T06:52:19.205Z,66.00
2023-05-05T06:54:45.972Z,66.56
2023-05-05T06:57:12.730Z,66.00
2023-05-05T06:59:39.490Z,66.60
2023-05-05T07:02:06.573Z,68.14
2023-05-05T07:04:33.254Z,67.45
2023-05-05T07:07:00.384Z,65.96
2023-05-05T07:09:27.189Z,66.45
2023-05-05T07:11:53.911Z,67.99
2023-05-05T07:14:22.757Z,67.00
2023-05-05T07:16:51.550Z,66.86
2023-05-05T07:19:18.337Z,64.70
2023-05-05T07:21:45.162Z,65.75
2023-05-05T07:24:11.939Z,66.19
2023-05-05T07:26:39.040Z,66.44
2023-05-05T07:29:07.125Z,67.26
2023-05-05T07:31:34.083Z,66.64
2023-05-05T07:34:01.130Z,66.59
2023-05-05T07:36:28.478Z,66.48
2023-05-05T07:38:55.573Z,66.09
2023-05-05T07:41:22.602Z,64.08
2023-05-05T07:43:49.340Z,63.08
2023-05-05T07:46:16.400Z,61.21
2023-05-05T07:48:43.143Z,64.41
2023-05-05T07:51:11.275Z,63.41
2023-05-05T07:53:38.077Z,66.17
2023-05-05T07:56:04.851Z,66.84
2023-05-05T07:58:31.548Z,66.40
2023-05-05T08:00:58.260Z,65.06
2023-05-05T08:03:25.471Z,66.33
2023-05-05T08:05:54.965Z,66.22
2023-05-05T08:08:24.812Z,64.99
2023-05-05T08:10:53.382Z,66.49
2023-05-05T08:13:20.443Z,64.11
2023-05-05T08:15:47.608Z,65.09
2023-05-05T08:18:15.112Z,64.65
2023-05-05T08:20:41.930Z,63.83
2023-05-05T08:23:08.582Z,64.59
2023-05-05T08:25:35.561Z,63.38
2023-05-05T08:28:02.638Z,62.19
2023-05-05T08:30:29.617Z,64.12
2023-05-05T08:32:56.542Z,61.16
2023-05-05T08:35:23.964Z,61.28
2023-05-05T08:37:51.929Z,61.14
2023-05-05T08:40:21.045Z,61.59
2023-05-05T08:42:48.141Z,60.29
2023-05-05T08:45:16.305Z,60.19
2023-05-05T08:47:43.711Z,59.02
2023-05-05T08:50:11.374Z,60.18
2023-05-05T08:52:41.405Z,59.96
2023-05-05T08:55:26.591Z,57.81
2023-05-05T08:57:58.187Z,57.56
2023-05-05T09:00:27.274Z,56.77
2023-05-05T09:02:59.225Z,57.25
2023-05-05T09:05:27.313Z,57.76
2023-05-05T09:07:54.141Z,55.59
2023-05-05T09:10:21.643Z,54.53
2023-05-05T09:12:51.606Z,55.87
2023-05-05T09:15:18.573Z,54.36
2023-05-05T09:17:45.513Z,55.89
2023-05-05T09:20:14.090Z,57.87
2023-05-05T09:22:45.640Z,53.09
2023-05-05T09:25:17.263Z,55.04
2023-05-05T09:27:46.626Z,52.72
2023-05-05T09:30:26.982Z,54.55
2023-05-05T09:32:55.559Z,53.98
2023-05-05T09:35:23.337Z,54.92
2023-05-05T09:37:50.295Z,55.21
2023-05-05T09:40:19.083Z,53.89
2023-05-05T09:42:46.253Z,51.42
2023-05-05T09:45:19.022Z,52.53
2023-05-05T09:47:47.348Z,53.95
2023-05-05T09:50:21.644Z,52.74
2023-05-05T09:52:59.923Z,54.32
2023-05-05T09:55:27.246Z,52.27
2023-05-05T09:57:54.276Z,54.25
2023-05-05T10:00:22.009Z,53.85
2023-05-05T10:02:48.953Z,52.43
2023-05-05T10:05:19.185Z,54.38
2023-05-05T10:07:47.619Z,51.72
2023-05-05T10:10:17.194Z,51.44
2023-05-05T10:12:46.697Z,51.47
2023-05-05T10:15:15.784Z,52.75
2023-05-05T10:20:20.765Z,51.48
2023-05-05T10:22:53.149Z,49.60
2023-05-05T10:25:46.052Z,49.86
2023-05-05T10:28:22.288Z,50.68
2023-05-05T10:30:54.473Z,52.73
2023-05-05T10:33:32.393Z,51.11
2023-05-05T10:36:02.564Z,50.40
2023-05-05T10:38:34.031Z,52.40
2023-05-05T10:41:02.308Z,52.32
2023-05-05T10:43:31.436Z,50.04
2023-05-05T10:45:59.315Z,50.18
2023-05-05T10:48:40.616Z,50.40
2023-05-05T10:51:07.476Z,49.35
2023-05-05T10:53:48.981Z,48.13
2023-05-05T10:56:27.017Z,47.81
2023-05-05T10:59:00.192Z,50.08
2023-05-05T11:01:32.428Z,49.89
2023-05-05T11:04:22.191Z,48.81
2023-05-05T11:07:14.760Z,50.77
2023-05-05T11:09:58.991Z,47.53
2023-05-05T11:12:25.793Z,47.92
2023-05-05T11:15:28.246Z,48.11
2023-05-05T11:17:56.659Z,47.21
2023-05-05T11:20:43.981Z,46.05
2023-05-05T11:23:10.656Z,50.14
2023-05-05T11:25:37.905Z,48.51
2023-05-05T11:28:15.156Z,49.87
2023-05-05T11:30:58.149Z,49.31
2023-05-05T11:33:38.906Z,46.88
2023-05-05T11:36:10.391Z,45.32
2023-05-05T11:39:21.413Z,47.30
2023-05-05T11:42:00.038Z,47.55
2023-05-05T11:44:31.786Z,47.00
2023-05-05T11:47:02.354Z,44.80
2023-05-05T11:49:39.688Z,47.16
2023-05-05T11:52:13.109Z,49.36
2023-05-05T11:54:51.044Z,47.24
2023-05-05T11:57:21.902Z,46.81
2023-05-05T11:59:56.449Z,47.24
2023-05-05T12:02:24.184Z,46.84
2023-05-05T12:04:51.329Z,47.84
2023-05-05T12:07:19.505Z,47.49
2023-05-05T12:09:46.842Z,46.82
2023-05-05T12:12:13.915Z,48.90
2023-05-05T12:14:53.936Z,45.64
2023-05-05T12:17:21.854Z,46.85
2023-05-05T12:19:52.828Z,46.43
2023-05-05T12:22:25.025Z,48.32
2023-05-05T12:24:59.152Z,45.10
2023-05-05T12:27:27.883Z,45.44
2023-05-05T12:29:56.642Z,45.92
2023-05-05T12:32:25.392Z,44.67
2023-05-05T12:34:57.749Z,44.78
2023-05-05T12:37:26.151Z,45.93
2023-05-05T12:39:56.636Z,45.39
2023-05-05T12:42:23.476Z,45.65
2023-05-05T12:44:50.321Z,45.31
2023-05-05T12:47:31.672Z,45.92
2023-05-05T12:50:00.301Z,45.69
2023-05-05T12:52:45.744Z,46.34
2023-05-05T12:55:12.387Z,46.64
2023-05-05T12:57:57.975Z,45.71
2023-05-05T13:00:27.586Z,45.76
2023-05-05T13:02:54.362Z,44.90
2023-05-05T13:05:36.348Z,45.40
2023-05-05T13:08:03.146Z,47.46
2023-05-05T13:10:31.488Z,46.95
2023-05-05T13:12:58.595Z,45.02
2023-05-05T13:15:26.173Z,44.38
2023-05-05T13:18:00.304Z,44.30
2023-05-05T13:20:27.401Z,44.87
2023-05-05T13:22:54.426Z,44.42
2023-05-05T13:25:21.143Z,45.95
2023-05-05T13:27:47.771Z,44.08
2023-05-05T13:30:14.794Z,43.71
2023-05-05T13:32:41.650Z,43.92
2023-05-05T13:35:09.472Z,43.86
2023-05-05T13:37:36.476Z,45.05
2023-05-05T13:40:03.669Z,44.60
2023-05-05T13:42:30.340Z,43.23
2023-05-05T13:44:57.087Z,44.51
2023-05-05T13:47:23.972Z,45.73
2023-05-05T13:49:50.808Z,43.33
2023-05-05T13:52:18.550Z,44.12
2023-05-05T13:54:45.320Z,43.87
2023-05-05T13:57:12.402Z,43.29
2023-05-05T13:59:39.144Z,44.25
2023-05-05T14:02:06.357Z,43.01
2023-05-05T14:04:33.228Z,43.44
2023-05-05T14:07:01.196Z,44.03
2023-05-05T14:09:27.972Z,43.32
2023-05-05T14:11:54.720Z,42.78
2023-05-05T14:14:21.795Z,43.09
2023-05-05T14:16:50.193Z,44.05
2023-05-05T14:19:17.236Z,43.75
2023-05-05T14:21:44.010Z,43.76
2023-05-05T14:24:11.227Z,44.27
2023-05-05T14:26:38.447Z,43.50
2023-05-05T14:29:05.156Z,43.46
2023-05-05T14:31:31.850Z,42.91
2023-05-05T14:33:58.512Z,43.00
2023-05-05T14:36:25.419Z,43.08
2023-05-05T14:38:52.224Z,43.15
2023-05-05T14:41:19.097Z,43.49
2023-05-05T14:43:45.828Z,42.65
2023-05-05T14:46:12.589Z,42.68
2023-05-05T14:48:39.349Z,44.13
2023-05-05T14:51:06.304Z,45.14
2023-05-05T14:53:34.175Z,43.13
2023-05-05T14:56:02.104Z,44.13
2023-05-05T14:58:28.920Z,43.08
2023-05-05T15:00:55.814Z,42.90
2023-05-05T15:03:22.972Z,43.06
2023-05-05T15:05:49.909Z,43.84
2023-05-05T15:08:18.731Z,42.20
2023-05-05T15:10:46.162Z,43.26
2023-05-05T15:13:13.228Z,43.25
2023-05-05T15:15:40.098Z,44.78
2023-05-05T15:18:07.189Z,44.19
2023-05-05T15:20:33.971Z,43.75
2023-05-05T15:23:01.418Z,45.08
2023-05-05T15:25:28.155Z,43.82
2023-05-05T15:27:54.866Z,45.23
2023-05-05T15:30:21.852Z,45.40
2023-05-05T15:32:48.543Z,44.29
2023-05-05T15:35:15.538Z,44.84
2023-05-05T15:37:42.916Z,45.67
2023-05-05T15:40:10.084Z,44.41
2023-05-05T15:42:37.589Z,45.22
2023-05-05T15:45:05.218Z,45.47
2023-05-05T15:47:31.962Z,45.60
2023-05-05T15:49:58.776Z,46.53
2023-05-05T15:52:25.731Z,46.14
2023-05-05T15:54:52.436Z,47.06
2023-05-05T15:57:19.324Z,46.12
2023-05-05T15:59:46.553Z,47.31
2023-05-05T16:02:13.265Z,46.79
2023-05-05T16:04:39.912Z,46.03
2023-05-05T16:07:06.727Z,46.38
2023-05-05T16:09:33.458Z,46.81
2023-05-05T16:12:00.286Z,46.86
2023-05-05T16:14:27.978Z,47.67
2023-05-05T16:16:56.413Z,46.70
2023-05-05T16:19:26.034Z,47.36
2023-05-05T16:21:56.520Z,46.94
2023-05-05T16:24:23.442Z,48.16
2023-05-05T16:26:50.096Z,48.70
2023-05-05T16:29:17.162Z,46.71
2023-05-05T16:31:43.868Z,47.47
2023-05-05T16:34:10.598Z,47.99
2023-05-05T16:36:37.330Z,47.17
2023-05-05T16:39:04.171Z,48.58
2023-05-05T16:41:31.258Z,48.98
2023-05-05T16:43:57.961Z,48.45
2023-05-05T16:46:24.800Z,49.19
2023-05-05T16:48:51.574Z,48.64
2023-05-05T16:51:18.590Z,48.71
2023-05-05T16:53:46.669Z,48.45
2023-05-05T16:56:15.349Z,49.62
2023-05-05T16:58:42.076Z,49.31
2023-05-05T17:01:08.826Z,49.18
2023-05-05T17:03:36.111Z,49.77
2023-05-05T17:06:03.248Z,50.79
2023-05-05T17:08:30.171Z,49.85
2023-05-05T17:10:57.134Z,50.21
2023-05-05T17:13:24.194Z,50.17
2023-05-05T17:15:51.452Z,49.83
2023-05-05T17:18:21.157Z,49.81
2023-05-05T17:20:49.622Z,49.57
2023-05-05T17:23:17.020Z,49.40
2023-05-05T17:25:43.823Z,49.18
2023-05-05T17:28:10.673Z,49.12
2023-05-05T17:30:37.701Z,49.33
2023-05-05T17:33:04.458Z,49.38
2023-05-05T17:35:31.685Z,49.98
2023-05-05T17:37:58.478Z,48.96
2023-05-05T17:40:25.086Z,50.30
2023-05-05T17:42:51.911Z,50.02
2023-05-05T17:45:18.702Z,49.96
2023-05-05T17:47:45.774Z,49.75
2023-05-05T17:50:12.506Z,50.52
2023-05-05T17:52:40.571Z,49.86
2023-05-05T17:55:08.076Z,49.82
2023-05-05T17:57:35.435Z,50.60
2023-05-05T18:00:09.357Z,48.97
2023-05-05T18:02:42.818Z,49.82
2023-05-05T18:05:11.010Z,50.40
2023-05-05T18:07:38.872Z,49.77
2023-05-05T18:10:10.715Z,49.02
2023-05-05T18:12:37.596Z,49.79
2023-05-05T18:15:05.733Z,50.03
2023-05-05T18:17:32.871Z,50.63
2023-05-05T18:19:59.849Z,49.58
2023-05-05T18:22:26.643Z,49.68
2023-05-05T18:24:58.951Z,50.10
2023-05-05T18:27:26.950Z,49.90
2023-05-05T18:29:54.210Z,49.53
2023-05-05T18:32:21.765Z,50.59
2023-05-05T18:34:48.838Z,50.76
2023-05-05T18:37:15.560Z,49.69
2023-05-05T18:39:44.013Z,50.47
2023-05-05T18:42:12.807Z,51.20
2023-05-05T18:44:39.749Z,50.58
2023-05-05T18:47:06.999Z,49.91
2023-05-05T18:49:33.975Z,50.17
2023-05-05T18:52:01.013Z,50.29
2023-05-05T18:54:27.728Z,49.98
2023-05-05T18:56:54.573Z,50.70
2023-05-05T18:59:21.808Z,50.33
2023-05-05T19:01:48.440Z,51.68
2023-05-05T19:04:29.491Z,51.67
2023-05-05T19:06:57.817Z,51.37
2023-05-05T19:09:24.485Z,50.57
2023-05-05T19:11:51.580Z,50.97
2023-05-05T19:14:18.316Z,51.50
2023-05-05T19:16:45.337Z,51.06
2023-05-05T19:19:12.059Z,50.50
2023-05-05T19:21:38.766Z,50.76
2023-05-05T19:24:08.167Z,51.73
2023-05-05T19:26:34.974Z,51.54
2023-05-05T19:29:01.896Z,51.49
2023-05-05T19:31:31.046Z,52.56
2023-05-05T19:34:01.683Z,55.43
2023-05-05T19:36:28.742Z,56.33
2023-05-05T19:38:55.832Z,57.97
2023-05-05T19:41:22.821Z,58.52
2023-05-05T19:43:50.062Z,59.26
2023-05-05T19:46:17.497Z,61.31
2023-05-05T19:48:44.412Z,60.22
2023-05-05T19:51:11.078Z,61.29
2023-05-05T19:53:40.054Z,60.95
2023-05-05T19:56:07.085Z,60.57
2023-05-05T19:59:00.676Z,61.25
2023-05-05T20:01:29.005Z,62.26
2023-05-05T20:03:57.644Z,63.19
2023-05-05T20:06:24.722Z,62.52
2023-05-05T20:08:51.517Z,62.91
2023-05-05T20:11:19.734Z,64.08
2023-05-05T20:13:46.697Z,63.10
2023-05-05T20:16:14.827Z,63.23
2023-05-05T20:18:41.508Z,63.94
2023-05-05T20:21:08.200Z,63.65
2023-05-05T20:23:35.122Z,64.15
2023-05-05T20:26:02.160Z,65.19
2023-05-05T20:28:30.136Z,64.88
2023-05-05T20:30:56.899Z,65.69
2023-05-05T20:33:23.579Z,65.02
2023-05-05T20:35:50.644Z,66.79
2023-05-05T20:38:17.392Z,67.94
2023-05-05T20:40:44.109Z,68.78
2023-05-05T20:43:10.788Z,68.38
2023-05-05T20:45:38.132Z,68.78
2023-05-05T20:48:07.331Z,68.87
2023-05-05T20:50:37.537Z,69.80
2023-05-05T20:53:05.202Z,70.09
2023-05-05T20:55:32.590Z,69.91
2023-05-05T20:57:59.333Z,69.70
2023-05-05T21:00:26.416Z,70.64
2023-05-05T21:02:53.623Z,70.60
2023-05-05T21:05:20.700Z,69.63
2023-05-05T21:07:47.785Z,69.52
2023-05-05T21:10:14.556Z,69.69
2023-05-05T21:12:41.702Z,68.95
2023-05-05T21:15:09.672Z,69.37
2023-05-05T21:17:36.762Z,69.23
2023-05-05T21:20:03.800Z,69.55
2023-05-05T21:22:30.755Z,70.21
2023-05-05T21:25:18.182Z,70.23
2023-05-05T21:27:45.252Z,70.23
2023-05-05T21:30:12.623Z,70.28
2023-05-05T21:32:40.358Z,70.95
2023-05-05T21:35:08.194Z,71.76
2023-05-05T21:37:39.161Z,72.63
2023-05-05T21:40:13.460Z,71.11
2023-05-05T21:42:41.441Z,68.27
2023-05-05T21:45:08.926Z,67.98
2023-05-05T21:47:35.768Z,66.92
2023-05-05T21:50:02.657Z,65.86
2023-05-05T21:52:29.391Z,66.65
2023-05-05T21:54:56.075Z,68.75
2023-05-05T21:57:22.878Z,70.38
2023-05-05T21:59:49.608Z,71.42
2023-05-05T22:02:16.709Z,72.00
2023-05-05T22:04:46.298Z,73.46
2023-05-05T22:07:13.048Z,76.85
2023-05-05T22:09:39.873Z,76.35
2023-05-05T22:12:06.820Z,76.06
2023-05-05T22:14:33.539Z,75.62
2023-05-05T22:17:00.470Z,76.13
2023-05-05T22:19:27.184Z,76.28
2023-05-05T22:21:53.821Z,76.54
2023-05-05T22:24:20.709Z,78.11
2023-05-05T22:26:47.403Z,77.81
2023-05-05T22:29:14.082Z,78.24
2023-05-05T22:31:41.004Z,78.80
2023-05-05T22:34:07.931Z,78.50
2023-05-05T22:36:34.650Z,78.24
2023-05-05T22:39:01.275Z,79.34
2023-05-05T22:41:28.002Z,80.13
2023-05-05T22:43:54.769Z,78.56
2023-05-05T22:46:21.553Z,78.40
2023-05-05T22:48:51.085Z,78.23
2023-05-05T22:51:18.244Z,78.19
2023-05-05T22:53:45.208Z,79.86
2023-05-05T22:56:11.924Z,78.62
2023-05-05T22:58:38.994Z,78.14
2023-05-05T23:01:05.755Z,79.00
2023-05-05T23:03:32.479Z,79.70
2023-05-05T23:05:59.138Z,80.34
2023-05-05T23:08:25.973Z,79.52
2023-05-05T23:10:53.370Z,79.19
2023-05-05T23:13:20.146Z,78.74
2023-05-05T23:15:46.844Z,78.10
2023-05-05T23:18:13.628Z,76.69
2023-05-05T23:20:40.439Z,77.73
2023-05-05T23:23:07.123Z,78.06
2023-05-05T23:25:34.297Z,78.54
2023-05-05T23:28:01.053Z,80.13
2023-05-05T23:30:27.819Z,79.59
2023-05-05T23:32:54.935Z,80.11
2023-05-05T23:35:21.757Z,82.10
2023-05-05T23:37:49.266Z,81.93
2023-05-05T23:40:15.912Z,83.16
2023-05-05T23:42:42.614Z,82.91
2023-05-05T23:45:10.183Z,83.31
2023-05-05T23:47:37.163Z,83.26
2023-05-05T23:50:04.181Z,82.27
2023-05-05T23:52:30.866Z,81.80
2023-05-05T23:54:57.539Z,81.48
2023-05-05T23:57:24.594Z,80.58
2023-05-05T23:59:51.262Z,78.75
